Latest Weather Observations for Urandangi

IDQ60801

Issued at 10:32 pm EST Saturday 20 December 2014 (issued every 30 minutes, with the page automatically refreshed every 10 minutes)

About weather observations | Map of weather stations | Latest weather observations for QLD | Other Formats
Station Details ID: 037058 Name: URANDANGI AERODROME Lat: -21.60 Lon: 138.37 Height: 178.6 m
Data from the previous 72 hours. | See also: Recent months at Urandangi
Date/Time
EST
Temp
°C
App
Temp
°C
Dew
Point
Rel
Hum
%
Delta-T
°C
Wind Press
QNH
hPa
Press
MSL
hPa
Rain
since 9 am
mm
Dir
 
Spd
km/h
Gust
km/h
Spd
kts
Gust
kts
20/10:30pm 30.1 27.1 4.0 19 13.5 S 9 11 5 6 1009.0 1007.7 0.0
20/10:00pm 31.8 28.0 3.8 17 14.6 SSE 13 15 7 8 1008.9 1007.6 0.0
20/09:30pm 32.7 28.8 3.6 16 15.1 SSE 13 15 7 8 1008.8 1007.5 0.0
20/09:00pm 32.8 28.8 2.8 15 15.4 SSE 13 15 7 8 1008.6 1007.3 0.0
20/08:30pm 33.6 29.7 3.4 15 15.7 SSE 13 15 7 8 1008.5 1007.2 0.0
20/08:00pm 34.7 30.8 3.3 14 16.5 SSE 13 15 7 8 1008.3 1007.0 0.0
20/07:30pm 36.4 31.6 2.5 12 17.7 SE 17 22 9 12 1008.1 1006.8 0.0
20/07:00pm 37.6 33.9 2.1 11 18.6 SE 11 17 6 9 1007.7 1006.3 0.0
20/06:30pm 38.4 34.4 2.8 11 18.9 SSE 13 19 7 10 1007.4 1006.0 0.0
20/06:00pm 39.0 34.8 1.9 10 19.5 SE 13 22 7 12 1007.1 1005.7 0.0
20/05:30pm 39.1 34.9 1.9 10 19.5 SSW 13 24 7 13 1007.0 1005.6 0.0
20/05:00pm 40.1 36.5 2.7 10 20.0 SSE 11 26 6 14 1006.9 1005.5 0.0
20/04:30pm 38.9 34.3 1.8 10 19.4 SSW 15 20 8 11 1007.1 1005.7 0.0
20/04:00pm 39.3 34.4 2.1 10 19.7 SSE 17 26 9 14 1007.5 1006.1 0.0
20/03:30pm 39.1 35.9 3.3 11 19.2 SSE 9 20 5 11 1007.7 1006.3 0.0
20/03:00pm 38.9 35.3 3.1 11 19.2 WSW 11 15 6 8 1008.1 1006.8 0.0
20/02:30pm 38.7 35.5 3.0 11 19.0 SSW 9 19 5 10 1008.6 1007.3 0.0
20/02:00pm 39.6 35.4 3.7 11 19.5 S 15 37 8 20 1009.0 1007.7 0.0
20/01:30pm 39.1 36.5 3.3 11 19.2 NE 6 11 3 6 1009.4 1008.1 0.0
20/01:00pm 38.3 33.7 3.9 12 18.6 E 17 26 9 14 1010.1 1008.8 0.0
20/12:30pm 39.0 36.4 4.4 12 18.9 E 7 20 4 11 1010.5 1009.2 0.0
20/12:00pm 38.6 34.1 4.1 12 18.7 ESE 17 28 9 15 1010.9 1009.6 0.0
20/11:30am 38.2 33.3 5.0 13 18.2 ESE 20 32 11 17 1011.3 1010.0 0.0
20/11:00am 38.5 33.2 5.2 13 18.3 ESE 22 33 12 18 1011.6 1010.3 0.0
20/10:30am 37.1 31.5 5.2 14 17.4 ESE 24 35 13 19 1011.8 1010.5 0.0
20/10:00am 36.4 30.5 5.6 15 16.9 E 26 37 14 20 1012.4 1011.0 0.0
20/09:30am 35.5 29.2 5.8 16 16.3 E 28 37 15 20 1012.6 1011.2 0.0
20/09:00am 34.8 29.0 6.2 17 15.7 E 26 33 14 18 1012.6 1011.2 0.0
20/08:30am 32.6 28.0 6.7 20 14.2 E 20 32 11 17 1012.6 1011.2 0.0
20/08:00am 30.6 26.6 8.9 26 12.2 E 20 26 11 14 1012.6 1011.2 0.0
20/07:30am 28.1 26.5 11.6 36 9.6 E 11 17 6 9 1012.3 1010.9 0.0
20/07:00am 24.4 24.2 13.0 49 6.7 SE 6 7 3 4 1011.8 1010.5 0.0
20/06:30am 21.2 20.4 11.0 52 5.7 SE 6 7 3 4 1011.4 1010.1 0.0
20/06:00am 20.8 20.4 11.2 54 5.3 SE 4 6 2 3 1011.1 1009.8 0.0
20/05:30am 21.5 21.7 12.9 58 4.9 SE 4 4 2 2 1010.7 1009.4 0.0
20/05:00am 20.6 19.9 11.5 56 5.1 SE 6 7 3 4 1010.3 1009.0 0.0
20/04:30am 21.1 20.3 11.7 55 5.3 SE 7 7 4 4 1010.2 1008.9 0.0
20/04:00am 21.4 20.8 11.7 54 5.5 SSE 6 6 3 3 1010.0 1008.7 0.0
20/03:30am 22.1 21.9 11.8 52 5.8 SSE 4 6 2 3 1010.2 1008.9 0.0
20/03:00am 22.8 22.8 12.4 52 6.0 SSE 4 6 2 3 1010.3 1009.0 0.0
20/02:30am 23.1 22.7 12.4 51 6.1 SSE 6 6 3 3 1010.4 1009.1 0.0
20/02:00am 23.4 22.7 11.5 47 6.7 SSE 6 7 3 4 1010.7 1009.4 0.0
20/01:30am 23.9 23.3 11.6 46 7.0 SE 6 6 3 3 1011.0 1009.7 0.0
20/01:00am 24.1 23.3 11.1 44 7.3 SE 6 7 3 4 1011.4 1010.1 0.0
20/12:30am 25.5 24.6 11.3 41 8.1 SSE 7 9 4 5 1011.8 1010.5 0.0
20/12:00am 26.3 25.5 11.2 38 8.6 S 6 7 3 4 1012.3 1010.9 0.0
 
Date/Time
EST
Temp
°C
App
Temp
°C
Dew
Point
Rel
Hum
%
Delta-T
°C
Wind Press
QNH
hPa
Press
MSL
hPa
Rain
since 9 am
mm
Dir
 
Spd
km/h
Gust
km/h
Spd
kts
Gust
kts
19/11:30pm 27.1 25.8 11.2 37 9.1 S 9 9 5 5 1012.5 1011.1 0.0
19/11:00pm 28.0 26.8 11.5 35 9.5 S 9 11 5 6 1012.6 1011.2 0.0
19/10:30pm 28.4 27.3 11.9 36 9.6 S 9 11 5 6 1012.7 1011.3 0.0
19/10:00pm 28.7 27.9 11.7 35 9.9 S 7 9 4 5 1012.5 1011.1 0.0
19/09:30pm 29.6 28.7 12.5 35 10.1 S 9 9 5 5 1012.2 1010.8 0.0
19/09:00pm 30.7 29.9 13.0 33 10.6 S 9 11 5 6 1012.1 1010.7 0.0
19/08:30pm 31.9 30.7 12.7 31 11.5 SSE 11 13 6 7 1011.8 1010.5 0.0
19/08:00pm 32.9 31.4 13.0 30 12.0 SSE 13 17 7 9 1011.4 1010.1 0.0
19/07:30pm 33.5 30.8 13.0 29 12.4 SE 19 28 10 15 1011.1 1009.8 0.0
19/07:00pm 34.3 30.4 13.2 28 12.9 SE 26 33 14 18 1010.6 1009.3 0.0
19/06:30pm 34.9 30.7 12.5 25 13.5 SE 26 43 14 23 1010.2 1008.9 0.0
19/06:00pm 35.5 31.9 13.1 26 13.7 SE 24 37 13 20 1010.0 1008.7 0.0
19/05:30pm 35.9 32.8 13.4 26 13.8 SE 22 33 12 18 1009.9 1008.6 0.0
19/05:00pm 35.7 33.3 14.4 28 13.3 SSE 20 28 11 15 1010.1 1008.8 0.0
19/04:30pm 36.1 34.0 15.2 28 13.2 SSE 20 30 11 16 1010.4 1009.1 0.0
19/04:00pm 35.5 33.6 15.3 30 12.7 SE 19 35 10 19 1010.6 1009.3 0.0
19/03:30pm 35.6 33.5 15.3 29 12.8 SSE 20 37 11 20 1010.9 1009.6 0.0
19/03:00pm 35.4 33.3 15.2 30 12.7 ESE 20 33 11 18 1011.5 1010.2 0.0
19/02:30pm 34.9 32.5 15.3 31 12.3 SE 22 35 12 19 1011.8 1010.5 0.0
19/02:00pm 35.2 33.4 16.0 31 12.2 SE 20 35 11 19 1012.3 1010.9 0.0
19/01:30pm 34.0 32.7 15.9 33 11.5 SSE 17 28 9 15 1012.7 1011.3 0.0
19/01:00pm 34.1 33.6 16.0 34 11.5 SSE 13 28 7 15 1013.0 1011.7 0.0
19/12:30pm 33.4 32.7 16.3 36 10.9 SE 15 24 8 13 1013.5 1012.2 0.0
19/12:00pm 32.8 31.9 15.8 36 10.7 SSE 15 28 8 15 1014.0 1012.7 0.0
19/11:30am 32.9 32.2 16.3 37 10.5 SE 15 24 8 13 1014.4 1013.1 0.0
19/11:00am 31.6 31.9 17.1 41 9.3 SE 11 22 6 12 1014.6 1013.3 0.0
19/10:30am 30.9 32.0 17.2 43 8.7 SE 7 15 4 8 1014.5 1013.2 0.0
19/10:00am 29.9 31.3 17.7 48 7.8 SE 7 15 4 8 1014.8 1013.5 0.0
19/09:30am 29.1 30.2 18.8 53 6.7 SSE 11 17 6 9 1014.8 1013.5 0.0
19/09:00am 27.6 29.2 19.9 63 5.1 SSE 11 17 6 9 1014.9 1013.6 0.6
19/08:30am 26.7 28.1 20.3 68 4.2 SE 13 19 7 10 1014.9 1013.6 0.6
19/08:00am 25.4 27.0 20.0 72 3.5 SSE 11 15 6 8 1014.9 1013.6 0.6
19/07:30am 24.1 26.1 20.0 78 2.7 SSE 9 11 5 6 1014.5 1013.2 0.6
19/07:00am 22.6 25.1 19.8 84 1.8 SSE 6 9 3 5 1014.2 1012.9 0.6
19/06:30am 20.9 22.9 18.8 88 1.3 SSE 6 6 3 3 1013.9 1012.6 0.6
19/06:00am 20.2 22.1 18.5 90 1.1 SSE 6 6 3 3 1013.5 1012.2 0.6
19/05:30am 20.5 22.9 18.8 90 1.1 SSE 4 4 2 2 1013.0 1011.7 0.6
19/05:00am 20.5 22.7 18.4 88 1.3 SSE 4 6 2 3 1012.7 1011.3 0.6
19/04:30am 20.7 22.6 18.6 88 1.3 SSE 6 7 3 4 1012.4 1011.0 0.6
19/04:00am 20.9 22.9 18.7 87 1.4 SSE 6 6 3 3 1012.3 1010.9 0.6
19/03:30am 21.5 23.7 19.2 87 1.5 SSE 6 7 3 4 1012.2 1010.8 0.6
19/03:00am 21.3 23.2 18.5 84 1.8 SSE 6 7 3 4 1012.1 1010.7 0.6
19/02:30am 21.9 23.9 19.1 84 1.8 SSE 7 7 4 4 1012.1 1010.7 0.6
19/02:00am 22.0 24.1 19.0 83 1.9 ESE 6 6 3 3 1011.8 1010.5 0.6
19/01:30am 22.3 24.7 18.9 81 2.2 ESE 4 6 2 3 1012.2 1010.8 0.6
19/01:00am 23.0 26.1 19.4 80 2.3 ESE 2 4 1 2 1012.6 1011.2 0.6
19/12:30am 23.4 25.9 19.8 80 2.3 ESE 6 6 3 3 1012.9 1011.6 0.6
19/12:00am 23.7 25.6 19.8 79 2.5 ESE 9 11 5 6 1013.2 1011.9 0.6
 
Date/Time
EST
Temp
°C
App
Temp
°C
Dew
Point
Rel
Hum
%
Delta-T
°C
Wind Press
QNH
hPa
Press
MSL
hPa
Rain
since 9 am
mm
Dir
 
Spd
km/h
Gust
km/h
Spd
kts
Gust
kts
18/11:30pm 23.9 25.9 20.0 79 2.5 ESE 9 11 5 6 1013.4 1012.1 0.6
18/11:00pm 24.2 25.9 20.1 78 2.7 SE 11 17 6 9 1013.2 1011.9 0.6
18/10:30pm 24.4 25.4 20.3 78 2.7 SE 15 20 8 11 1012.8 1011.5 0.6
18/10:00pm 24.4 25.6 20.7 80 2.4 SE 15 20 8 11 1012.6 1011.2 0.6
18/09:30pm 24.2 25.4 20.7 81 2.3 SE 15 20 8 11 1012.6 1011.2 0.6
18/09:00pm 24.4 24.7 20.5 79 2.6 SE 19 24 10 13 1012.5 1011.1 0.6
18/08:30pm 24.8 25.5 20.5 77 2.8 SE 17 24 9 13 1012.6 1011.2 0.6
18/08:00pm 25.1 26.2 20.4 75 3.1 SE 15 19 8 10 1012.8 1011.5 0.6
18/07:30pm 25.6 26.2 20.2 72 3.5 SE 17 22 9 12 1011.7 1010.4 0.6
18/07:00pm 25.9 25.9 20.2 71 3.7 SE 20 26 11 14 1011.3 1010.0 0.6
18/06:30pm 27.1 27.7 20.2 66 4.5 ESE 17 24 9 13 1010.4 1009.1 0.6
18/06:00pm 27.3 28.1 20.6 67 4.4 ESE 17 22 9 12 1010.4 1009.1 0.6
18/05:30pm 26.8 28.0 20.6 69 4.1 SE 15 19 8 10 1010.5 1009.2 0.6
18/05:00pm 26.6 27.2 20.2 68 4.2 ESE 17 24 9 13 1010.3 1009.0 0.6
18/04:30pm 26.4 26.5 20.0 68 4.2 ESE 19 24 10 13 1010.8 1009.5 0.6
18/04:00pm 26.7 27.1 19.8 66 4.5 ESE 17 22 9 12 1011.3 1010.0 0.6
18/03:30pm 26.8 26.9 19.9 66 4.5 SE 19 26 10 14 1011.7 1010.4 0.6
18/03:00pm 26.0 25.3 19.6 68 4.2 ESE 22 32 12 17 1012.1 1010.7 0.6
18/02:30pm 25.6 24.9 19.5 69 4.0 SE 22 30 12 16 1012.9 1011.6 0.6
18/02:00pm 25.1 23.9 19.2 70 3.8 SE 24 30 13 16 1013.5 1012.2 0.6
18/01:30pm 24.6 23.4 19.2 72 3.5 SSE 24 35 13 19 1014.0 1012.7 0.6
18/01:00pm 24.4 22.7 19.0 72 3.5 S 26 33 14 18 1014.7 1013.4 0.6
18/12:30pm 23.4 21.7 18.9 76 2.9 S 26 35 14 19 1015.3 1014.0 0.6
18/12:00pm 25.0 23.2 18.7 68 4.0 S 26 37 14 20 1015.3 1014.0 0.6
18/11:30am 24.5 22.0 18.9 71 3.6 S 30 43 16 23 1014.8 1013.5 0.6
18/11:00am 25.1 22.7 19.0 69 3.9 SSE 30 41 16 22 1014.7 1013.4 0.6
18/10:30am 24.5 21.9 19.8 75 3.1 S 33 48 18 26 1014.2 1012.9 0.6
18/10:00am 24.1 22.2 21.0 83 2.0 S 32 44 17 24 1013.7 1012.4 0.6
18/09:30am 26.5 25.9 20.6 70 3.9 SSW 24 33 13 18 1013.2 1011.9 0.0
18/09:00am 25.8 24.9 20.6 73 3.4 SW 26 33 14 18 1012.4 1011.0 0.4
18/08:30am 25.6 24.5 21.1 76 3.0 S 28 39 15 21 1012.3 1010.9 0.4
18/08:00am 26.2 24.2 21.2 74 3.3 SSW 33 46 18 25 1011.4 1010.1 0.4
18/07:39am 28.1 24.6 20.4 63 5.1 SW 39 50 21 27 1010.4 1009.1 0.4
18/07:30am 30.8 29.5 19.8 52 7.3 W 26 46 14 25 1009.9 1008.6 0.4
18/07:24am 31.0 31.1 20.0 52 7.3 NW 19 46 10 25 1009.7 1008.4 0.4
18/07:00am 31.5 32.4 20.1 50 7.6 NNW 15 22 8 12 1008.0 1006.7 0.4
18/06:30am 31.2 31.8 20.2 52 7.3 N 17 22 9 12 1007.5 1006.1 0.4
18/06:00am 29.3 31.8 20.2 58 6.0 NNE 7 9 4 5 1006.6 1005.2 0.4
18/05:30am 29.2 30.9 20.1 58 6.0 NNE 11 15 6 8 1006.0 1004.7 0.4
18/05:00am 28.9 30.7 20.4 60 5.7 NE 11 13 6 7 1005.8 1004.5 0.4
18/04:30am 28.9 31.3 20.9 62 5.3 NE 9 11 5 6 1005.7 1004.4 0.4
18/04:00am 28.5 31.0 21.8 67 4.5 ENE 11 13 6 7 1005.8 1004.5 0.4
18/03:30am 28.5 32.2 23.2 73 3.6 ESE 9 11 5 6 1005.9 1004.6 0.4
18/03:00am 30.1 33.5 20.9 57 6.2 SE 4 6 2 3 1006.7 1005.3 0.4
18/02:30am 30.7 33.0 19.4 51 7.4 NE 6 15 3 8 1007.0 1005.6 0.4
18/02:00am 32.3 31.6 17.4 41 9.6 SW 17 32 9 17 1006.2 1004.8 0.0
18/01:30am 31.5 32.8 17.0 41 9.2 E 6 6 3 3 1005.2 1003.9 0.0
18/01:00am 32.7 32.8 16.5 37 10.3 E 11 17 6 9 1005.4 1004.1 0.0
18/12:30am 32.6 33.2 16.8 38 10.1 ENE 9 13 5 7 1005.9 1004.6 0.0
18/12:00am 30.8 32.3 19.8 52 7.3 ESE 11 13 6 7 1006.2 1004.8 0.0
 
Date/Time
EST
Temp
°C
App
Temp
°C
Dew
Point
Rel
Hum
%
Delta-T
°C
Wind Press
QNH
hPa
Press
MSL
hPa
Rain
since 9 am
mm
Dir
 
Spd
km/h
Gust
km/h
Spd
kts
Gust
kts
17/11:30pm 32.4 33.1 17.1 40 9.8 E 9 13 5 7 1006.4 1005.0 0.0
17/11:00pm 32.8 32.6 16.6 38 10.3 ESE 13 17 7 9 1006.4 1005.0 0.0

Other Formats:

Comma delimited format used in spreadsheet applications
http://www.bom.gov.au/fwo/IDQ60801/IDQ60801.94344.axf

JavaScript Object Notation format (JSON) in row-major order
http://www.bom.gov.au/fwo/IDQ60801/IDQ60801.94344.json